Kalamunda, Australia
Current Conditions -  °F | °C
As of 9:30 PM on Friday 28 Nov 2014 (Local Time) from YPPH Reporting Station
Broken Clouds Broken Clouds  
Wind Chill: 66°   Ceiling: 1600
Heat Index: 66°   Visibility: 6mi
Dew Point: 61°   Wind: 13mph
Humidity: 83%   Direction: 230°SW
Pressure: 29.91"   Gusts: NA
Location:  31.97°S, 116.06°E
Report Text: YPPH 281330Z 23011KT 9999 BKN016 BKN019 19/16 Q1013
Loading
Personal Weather Stations






























Interactive Weather Map New forecast layout! Learn more

10-Day Weather Forecast

Advertisements
Track Severe Weather on mobile